Time;durP1;ratioP1;P1;durP2;ratioP2;P2;SDS_P1;SDS_P2;PMS_P1;PMS_P2;Temp;Humidity;BMP_temperature;BMP_pressure;BME280_temperature;BME280_humidity;BME280_pressure;Samples;Min_cycle;Max_cycle;Signal;HPM_P1;HPM_P2
2021/09/12 00:00:13;;;;;;;13.63;7.93;;;;;;;16.33;65.87;100271.69;5112950;28;20051;-75
2021/09/12 00:02:43;;;;;;;12.88;8.63;;;;;;;16.31;65.70;100268.28;5113488;28;20043;-75
2021/09/12 00:05:16;;;;;;;13.07;8.10;;;;;;;16.08;66.68;100262.09;5113204;28;20108;-73
2021/09/12 00:07:44;;;;;;;14.75;8.15;;;;;;;16.08;67.05;100262.09;5113548;28;20131;-74
2021/09/12 00:10:14;;;;;;;16.20;8.27;;;;;;;16.03;66.73;100248.19;5112980;28;20054;-74
2021/09/12 00:12:43;;;;;;;11.80;7.82;;;;;;;16.03;66.66;100249.06;5113707;28;20052;-71
2021/09/12 00:15:12;;;;;;;12.02;7.88;;;;;;;16.12;66.37;100251.97;5113060;28;20397;-70
2021/09/12 00:17:41;;;;;;;12.80;8.07;;;;;;;16.17;65.95;100257.81;5113138;28;20531;-70
2021/09/12 00:20:12;;;;;;;14.02;7.75;;;;;;;16.19;65.56;100255.81;5113195;28;20047;-70
2021/09/12 00:22:41;;;;;;;12.23;7.38;;;;;;;16.22;65.28;100253.75;5113323;28;20088;-70
2021/09/12 00:25:11;;;;;;;9.85;7.18;;;;;;;16.10;65.76;100249.38;5115568;28;20040;-70
2021/09/12 00:27:39;;;;;;;12.75;7.82;;;;;;;15.86;67.19;100256.81;5117394;28;20043;-70
2021/09/12 00:30:11;;;;;;;14.00;8.43;;;;;;;15.69;68.60;100260.84;5117154;28;20050;-70
2021/09/12 00:32:40;;;;;;;15.02;7.95;;;;;;;15.55;68.71;100253.88;5117696;28;20043;-70
2021/09/12 00:35:11;;;;;;;15.57;8.38;;;;;;;15.50;69.03;100256.06;5116919;28;20406;-70
2021/09/12 00:37:39;;;;;;;15.38;8.52;;;;;;;15.57;69.39;100261.81;5117102;28;20489;-70
2021/09/12 00:40:09;;;;;;;16.83;8.52;;;;;;;15.73;68.61;100251.59;5116966;28;20044;-70
2021/09/12 00:42:38;;;;;;;13.60;7.65;;;;;;;15.86;67.60;100256.81;5117282;28;20047;-70
2021/09/12 00:45:08;;;;;;;12.35;6.95;;;;;;;15.86;67.03;100256.81;5116756;28;20040;-72
2021/09/12 00:47:37;;;;;;;12.60;7.38;;;;;;;15.65;68.12;100251.34;5116911;28;20130;-72
2021/09/12 00:50:06;;;;;;;14.30;8.35;;;;;;;15.64;68.79;100246.94;5116605;28;20039;-71
2021/09/12 00:52:39;;;;;;;12.43;8.38;;;;;;;15.54;69.15;100254.88;5116633;28;20059;-71
2021/09/12 00:55:09;;;;;;;13.82;8.52;;;;;;;15.39;70.22;100251.56;5116777;28;20067;-71
2021/09/12 00:57:39;;;;;;;11.48;8.43;;;;;;;15.31;70.48;100251.31;5098900;28;20049;-71
2021/09/12 01:00:08;;;;;;;13.32;8.15;;;;;;;15.29;70.82;100247.06;5098562;28;20448;-71
2021/09/12 01:02:39;;;;;;;12.10;8.05;;;;;;;15.54;69.61;100249.50;5116658;28;20044;-71
2021/09/12 01:05:09;;;;;;;17.02;8.25;;;;;;;15.46;69.63;100243.88;5116257;28;20048;-71
2021/09/12 01:07:41;;;;;;;13.15;8.57;;;;;;;15.29;70.65;100241.69;5116586;28;20070;-71
2021/09/12 01:10:11;;;;;;;15.02;8.10;;;;;;;15.09;72.01;100243.25;5116306;28;20511;-71
2021/09/12 01:12:42;;;;;;;13.10;8.38;;;;;;;15.06;71.77;100235.47;5116591;28;20048;-71
2021/09/12 01:15:12;;;;;;;14.02;8.68;;;;;;;15.19;71.04;100236.19;5116110;28;20047;-70
2021/09/12 01:17:41;;;;;;;14.40;7.95;;;;;;;15.31;70.38;100237.88;5116459;28;20460;-71
2021/09/12 01:20:10;;;;;;;15.05;8.43;;;;;;;15.01;71.39;100232.28;5097830;28;20445;-71
2021/09/12 01:22:42;;;;;;;16.10;8.82;;;;;;;15.03;71.16;100235.69;5116525;28;20078;-70
2021/09/12 01:25:12;;;;;;;14.50;7.88;;;;;;;14.94;71.49;100231.88;5115979;28;20039;-71
2021/09/12 01:27:40;;;;;;;13.73;7.65;;;;;;;15.11;70.96;100233.25;5116281;28;20143;-70
2021/09/12 01:30:10;;;;;;;14.38;8.38;;;;;;;15.07;71.02;100234.47;5116038;28;20044;-71
2021/09/12 01:32:38;;;;;;;17.33;8.90;;;;;;;15.07;71.42;100231.78;5098422;28;20069;-70
2021/09/12 01:35:07;;;;;;;14.70;8.18;;;;;;;15.00;71.64;100235.94;5115813;28;20044;-78
2021/09/12 01:37:38;;;;;;;15.13;8.90;;;;;;;14.82;72.52;100241.75;5116880;28;20413;-71
2021/09/12 01:40:07;;;;;;;14.18;9.05;;;;;;;14.78;72.46;100240.31;5116033;28;20058;-82
2021/09/12 01:42:37;;;;;;;14.02;8.93;;;;;;;14.73;73.00;100239.78;5116401;28;20120;-71
2021/09/12 01:45:08;;;;;;;15.02;8.73;;;;;;;14.66;73.44;100243.91;5116307;28;20051;-71
2021/09/12 01:47:36;;;;;;;14.73;8.95;;;;;;;14.43;74.59;100244.81;5099095;28;20059;-71
2021/09/12 01:50:05;;;;;;;14.18;9.10;;;;;;;14.62;73.76;100247.81;5116180;28;20130;-71
2021/09/12 01:52:34;;;;;;;15.98;8.52;;;;;;;14.55;73.92;100246.56;5115990;28;20046;-71
2021/09/12 01:55:03;;;;;;;18.63;9.40;;;;;;;14.57;74.17;100244.63;5115878;28;20050;-71
2021/09/12 01:57:31;;;;;;;13.88;8.77;;;;;;;14.52;74.13;100241.47;5115928;28;20389;-71
2021/09/12 02:00:01;;;;;;;13.10;9.00;;;;;;;14.40;75.08;100250.41;5115783;28;20039;-71
2021/09/12 02:02:33;;;;;;;15.05;9.35;;;;;;;14.38;75.11;100244.28;5116115;28;20092;-71
2021/09/12 02:05:03;;;;;;;15.05;9.30;;;;;;;14.37;75.05;100242.56;5097942;28;20130;-71
2021/09/12 02:07:31;;;;;;;13.80;9.25;;;;;;;14.41;75.01;100238.72;5115515;28;20051;-71
2021/09/12 02:10:00;;;;;;;13.95;9.00;;;;;;;14.50;74.42;100244.25;5115918;28;20051;-73
2021/09/12 02:12:29;;;;;;;13.15;8.43;;;;;;;14.50;74.62;100248.78;5115047;28;20051;-73
2021/09/12 02:14:58;;;;;;;14.43;8.88;;;;;;;14.33;75.65;100250.88;5115420;28;20043;-73
2021/09/12 02:17:28;;;;;;;17.42;9.38;;;;;;;14.26;76.30;100249.63;5115256;28;20405;-73
2021/09/12 02:19:57;;;;;;;15.00;8.50;;;;;;;14.39;76.08;100246.88;5115291;28;20123;-72
2021/09/12 02:22:25;;;;;;;13.30;7.70;;;;;;;14.52;75.56;100252.19;5114994;28;20039;-73
2021/09/12 02:24:53;;;;;;;11.48;8.43;;;;;;;14.52;75.08;100254.88;5115234;28;20044;-73
2021/09/12 02:27:25;;;;;;;13.32;8.27;;;;;;;14.38;75.96;100252.34;5114783;28;20100;-73
2021/09/12 02:29:53;;;;;;;15.65;8.75;;;;;;;14.44;75.96;100244.69;5114953;28;20085;-73
2021/09/12 02:32:22;;;;;;;15.10;8.32;;;;;;;14.45;75.69;100241.06;5114529;28;20513;-71
2021/09/12 02:34:52;;;;;;;12.68;7.93;;;;;;;14.59;75.24;100246.25;5115096;28;20036;-74
2021/09/12 02:37:21;;;;;;;15.68;8.55;;;;;;;14.63;75.14;100249.53;5114761;28;20039;-71
2021/09/12 02:39:49;;;;;;;13.23;8.10;;;;;;;14.45;75.78;100256.31;5114986;28;20046;-71
2021/09/12 02:42:18;;;;;;;11.20;8.15;;;;;;;14.38;76.05;100260.38;5114797;28;20047;-70
2021/09/12 02:44:46;;;;;;;16.63;8.15;;;;;;;14.22;77.05;100260.72;5114534;28;20044;-71
2021/09/12 02:47:14;;;;;;;13.60;8.88;;;;;;;14.03;78.28;100262.06;5113590;28;20043;-71
2021/09/12 02:49:45;;;;;;;18.75;9.05;;;;;;;13.94;79.07;100267.28;5114584;28;20040;-71
2021/09/12 02:52:15;;;;;;;12.25;8.50;;;;;;;13.92;79.25;100261.16;5114282;28;20042;-71
2021/09/12 02:54:43;;;;;;;12.02;8.23;;;;;;;13.89;79.23;100264.06;5114802;28;20096;-71
2021/09/12 02:57:14;;;;;;;14.70;8.23;;;;;;;13.98;79.16;100263.38;5114110;28;20067;-79
2021/09/12 02:59:42;;;;;;;10.93;7.80;;;;;;;14.12;78.31;100270.41;5114554;28;20050;-71
2021/09/12 03:02:10;;;;;;;13.30;8.63;;;;;;;14.33;77.44;100264.28;5114480;28;20042;-70
2021/09/12 03:04:40;;;;;;;13.15;7.90;;;;;;;14.48;76.68;100265.00;5114235;28;20067;-70
2021/09/12 03:07:08;;;;;;;12.80;8.30;;;;;;;14.37;77.06;100262.22;5113701;28;20051;-70
2021/09/12 03:09:38;;;;;;;13.48;8.15;;;;;;;14.27;77.80;100272.78;5095828;28;20051;-70
2021/09/12 03:12:08;;;;;;;14.40;8.35;;;;;;;14.22;78.10;100266.94;5095908;28;20431;-71
2021/09/12 03:14:36;;;;;;;12.82;7.93;;;;;;;14.30;77.47;100259.16;5114267;28;20047;-71
2021/09/12 03:17:07;;;;;;;13.80;8.30;;;;;;;14.21;77.71;100259.84;5114314;28;20400;-71
2021/09/12 03:19:35;;;;;;;13.30;7.80;;;;;;;14.26;77.33;100260.34;5113669;28;20494;-71
2021/09/12 03:22:04;;;;;;;11.52;7.65;;;;;;;14.23;77.13;100259.72;5114248;28;20485;-73
2021/09/12 03:24:33;;;;;;;10.77;7.38;;;;;;;14.19;77.12;100256.44;5113703;28;20055;-74
2021/09/12 03:27:03;;;;;;;12.85;8.00;;;;;;;14.15;77.46;100262.13;5113925;28;20058;-74
2021/09/12 03:29:32;;;;;;;11.30;8.02;;;;;;;14.13;76.81;100256.03;5113611;28;20048;-75
2021/09/12 03:32:01;;;;;;;14.45;8.02;;;;;;;14.11;77.40;100264.19;5114065;28;20039;-72
2021/09/12 03:34:29;;;;;;;14.25;8.23;;;;;;;13.99;78.57;100262.41;5113391;28;20047;-74
2021/09/12 03:36:57;;;;;;;12.63;7.70;;;;;;;13.90;78.88;100265.78;5113650;28;20051;-72
2021/09/12 03:39:28;;;;;;;12.82;8.20;;;;;;;14.06;78.48;100265.50;5113741;28;20544;-73
2021/09/12 03:41:56;;;;;;;12.43;8.05;;;;;;;14.22;77.52;100264.25;5113852;28;20406;-74
2021/09/12 03:44:26;;;;;;;11.82;8.55;;;;;;;14.01;78.19;100263.16;5113299;28;20040;-71
2021/09/12 03:46:56;;;;;;;14.57;8.32;;;;;;;13.84;78.83;100271.59;5113634;28;20049;-70
2021/09/12 03:49:24;;;;;;;13.20;8.70;;;;;;;13.87;78.52;100263.31;5113085;28;20054;-72
2021/09/12 03:51:52;;;;;;;14.98;8.90;;;;;;;13.79;78.42;100268.38;5113586;28;20490;-76
2021/09/12 03:54:21;;;;;;;12.30;8.25;;;;;;;13.69;79.19;100266.38;5113035;28;20047;-77
2021/09/12 03:56:49;;;;;;;12.45;8.40;;;;;;;13.68;79.05;100270.03;5113583;28;20044;-76
2021/09/12 03:59:17;;;;;;;16.42;9.25;;;;;;;13.72;78.71;100268.00;5112887;28;20044;-75
2021/09/12 04:01:47;;;;;;;18.58;9.48;;;;;;;13.58;79.10;100266.31;5113317;28;20078;-74
2021/09/12 04:04:16;;;;;;;14.55;8.20;;;;;;;13.46;79.56;100269.88;5113409;28;20493;-73
2021/09/12 04:06:44;;;;;;;16.48;8.88;;;;;;;13.40;79.91;100272.97;5113448;28;20050;-71
2021/09/12 04:09:15;;;;;;;15.65;9.65;;;;;;;13.47;79.85;100268.91;5113396;28;20493;-76
2021/09/12 04:11:43;;;;;;;12.15;8.15;;;;;;;13.44;79.82;100266.44;5113187;28;20047;-71
2021/09/12 04:14:11;;;;;;;14.82;9.02;;;;;;;13.51;79.56;100258.81;5113267;28;20101;-71
2021/09/12 04:16:40;;;;;;;13.27;8.80;;;;;;;13.38;80.17;100265.06;5113048;28;20047;-71
2021/09/12 04:19:10;;;;;;;13.98;8.85;;;;;;;13.39;80.47;100265.91;5113225;28;20444;-71
2021/09/12 04:21:38;;;;;;;13.57;9.10;;;;;;;13.47;80.32;100258.19;5113182;28;20047;-72
2021/09/12 04:24:07;;;;;;;15.05;9.00;;;;;;;13.62;79.60;100262.44;5113197;28;20043;-71
2021/09/12 04:26:35;;;;;;;16.27;8.57;;;;;;;13.69;79.35;100265.50;5113050;28;20055;-71
2021/09/12 04:29:04;;;;;;;13.23;8.65;;;;;;;13.63;79.92;100274.88;5113305;28;20040;-71
2021/09/12 04:31:32;;;;;;;13.48;8.68;;;;;;;13.73;79.36;100270.56;5112866;28;20513;-71
2021/09/12 04:34:00;;;;;;;15.80;9.20;;;;;;;13.77;79.12;100275.69;5113228;28;20486;-71
2021/09/12 04:36:30;;;;;;;13.35;8.45;;;;;;;13.69;79.62;100274.41;5112720;28;20050;-71
2021/09/12 04:38:58;;;;;;;13.68;9.00;;;;;;;13.62;79.81;100267.81;5112932;28;20036;-71
2021/09/12 04:41:27;;;;;;;14.85;8.93;;;;;;;13.61;79.98;100271.47;5112917;28;20042;-71
2021/09/12 04:43:55;;;;;;;14.75;9.05;;;;;;;13.60;79.81;100275.06;5113156;28;20044;-71
2021/09/12 04:46:24;;;;;;;12.10;8.07;;;;;;;13.66;79.72;100274.66;5112659;28;20110;-71
2021/09/12 04:48:57;;;;;;;13.45;7.75;;;;;;;13.73;79.23;100275.06;5113061;28;20071;-71
2021/09/12 04:51:26;;;;;;;12.45;8.02;;;;;;;13.60;80.30;100280.44;5112887;28;20042;-71
2021/09/12 04:53:55;;;;;;;13.93;8.88;;;;;;;13.65;80.05;100280.13;5112765;28;20047;-71
2021/09/12 04:56:24;;;;;;;13.15;8.90;;;;;;;13.85;79.12;100284.88;5112735;28;20111;-71
2021/09/12 04:58:52;;;;;;;12.35;8.35;;;;;;;13.97;78.48;100283.13;5113005;28;20096;-71
2021/09/12 05:01:21;;;;;;;12.32;8.35;;;;;;;14.00;78.17;100283.78;5112516;28;20051;-72
2021/09/12 05:03:51;;;;;;;12.93;8.80;;;;;;;14.10;77.86;100288.47;5112836;28;20050;-72
2021/09/12 05:06:20;;;;;;;14.13;8.50;;;;;;;14.03;78.22;100293.41;5112557;28;20035;-73
2021/09/12 05:08:48;;;;;;;12.65;8.50;;;;;;;14.17;77.82;100285.19;5113040;28;20050;-73
2021/09/12 05:11:18;;;;;;;13.27;8.40;;;;;;;14.03;78.06;100286.22;5115594;28;20108;-71
2021/09/12 05:13:46;;;;;;;13.02;8.45;;;;;;;14.19;77.73;100298.50;5116645;28;20078;-70
2021/09/12 05:16:15;;;;;;;12.73;8.43;;;;;;;14.30;77.27;100285.13;5116600;28;20085;-71
2021/09/12 05:18:43;;;;;;;13.77;8.43;;;;;;;14.35;77.12;100295.50;5115958;28;20054;-71
2021/09/12 05:21:11;;;;;;;14.50;8.18;;;;;;;14.55;75.81;100290.38;5116510;28;20092;-70
2021/09/12 05:23:45;;;;;;;14.10;8.10;;;;;;;14.57;75.92;100287.56;5116080;28;20055;-70
2021/09/12 05:26:14;;;;;;;11.18;7.65;;;;;;;14.67;75.54;100287.72;5116141;28;20444;-71
2021/09/12 05:28:45;;;;;;;9.85;7.68;;;;;;;14.80;74.52;100285.81;5115913;28;20059;-71
2021/09/12 05:31:14;;;;;;;14.88;7.90;;;;;;;15.11;72.96;100284.28;5116016;28;20573;-72
2021/09/12 05:33:43;;;;;;;15.10;7.30;;;;;;;15.06;72.44;100284.66;5115671;28;20051;-69
2021/09/12 05:36:11;;;;;;;10.85;7.45;;;;;;;15.22;71.85;100284.28;5116118;28;20070;-70
2021/09/12 05:38:39;;;;;;;11.23;7.45;;;;;;;15.30;71.43;100284.56;5115782;28;20104;-73
2021/09/12 05:41:07;;;;;;;13.85;6.85;;;;;;;15.28;71.28;100286.50;5116094;28;20054;-72
2021/09/12 05:43:38;;;;;;;10.95;7.00;;;;;;;15.44;70.70;100286.13;5116089;28;20046;-73
2021/09/12 05:46:08;;;;;;;11.55;6.57;;;;;;;15.54;69.83;100294.31;5097760;28;20071;-73
2021/09/12 05:48:37;;;;;;;9.80;6.35;;;;;;;15.54;69.85;100291.63;5115768;28;20096;-73
2021/09/12 05:51:05;;;;;;;11.70;6.78;;;;;;;15.64;69.12;100290.81;5115936;28;20040;-73
2021/09/12 05:53:34;;;;;;;11.10;6.35;;;;;;;15.70;69.00;100294.84;5115579;28;20075;-71
2021/09/12 05:56:02;;;;;;;10.50;6.30;;;;;;;15.73;67.96;100286.53;5115585;28;20088;-72
2021/09/12 05:58:31;;;;;;;12.18;6.00;;;;;;;16.04;66.56;100301.03;5115489;28;20109;-73
2021/09/12 06:00:59;;;;;;;10.23;6.20;;;;;;;16.17;66.27;100303.56;5115733;28;20043;-71
2021/09/12 06:03:29;;;;;;;10.75;6.35;;;;;;;16.33;66.07;100304.00;5115269;28;20035;-73
2021/09/12 06:06:01;;;;;;;11.45;5.93;;;;;;;16.41;65.52;100301.53;5115860;28;20051;-72
2021/09/12 06:08:29;;;;;;;10.52;5.68;;;;;;;16.62;64.95;100298.00;5115120;28;20059;-71
2021/09/12 06:10:57;;;;;;;9.68;5.95;;;;;;;16.73;64.58;100290.75;5115277;28;20047;-73
2021/09/12 06:13:27;;;;;;;13.85;6.07;;;;;;;16.80;63.62;100296.47;5116343;28;20059;-77
2021/09/12 06:15:56;;;;;;;9.43;5.60;;;;;;;16.87;62.74;100292.25;5117552;28;20044;-72
2021/09/12 06:18:24;;;;;;;12.65;6.40;;;;;;;16.88;62.98;100300.19;5114737;28;20401;-71
2021/09/12 06:20:53;;;;;;;10.55;5.75;;;;;;;16.98;62.49;100297.56;5113548;28;20103;-72
2021/09/12 06:23:23;;;;;;;10.38;6.18;;;;;;;17.09;61.84;100292.13;5114573;28;20047;-69
2021/09/12 06:25:53;;;;;;;15.52;6.32;;;;;;;17.15;61.52;100288.03;5114443;28;20059;-70
2021/09/12 06:28:22;;;;;;;8.73;5.70;;;;;;;17.28;61.87;100290.53;5097346;28;20062;-68
2021/09/12 06:30:50;;;;;;;10.63;5.85;;;;;;;17.37;61.04;100287.88;5114394;28;20051;-70
2021/09/12 06:33:19;;;;;;;10.43;6.05;;;;;;;17.59;60.26;100292.22;5114596;28;20097;-69
2021/09/12 06:35:48;;;;;;;9.65;5.45;;;;;;;17.75;59.71;100291.72;5114098;28;20036;-74
2021/09/12 06:38:17;;;;;;;11.65;5.50;;;;;;;18.21;58.16;100291.13;5114725;28;20100;-72
2021/09/12 06:40:46;;;;;;;9.77;5.70;;;;;;;18.59;56.23;100281.34;5114529;28;20069;-70
2021/09/12 06:43:14;;;;;;;10.32;5.10;;;;;;;18.59;56.61;100300.25;5114715;28;20482;-71
2021/09/12 06:45:43;;;;;;;7.82;5.00;;;;;;;18.99;55.01;100296.53;5096222;28;20401;-73
2021/09/12 06:48:11;;;;;;;10.38;5.20;;;;;;;19.06;54.23;100289.56;5114437;28;20104;-71
2021/09/12 06:50:40;;;;;;;9.45;4.63;;;;;;;19.25;53.73;100292.22;5114185;28;20096;-71
2021/09/12 06:53:08;;;;;;;7.70;4.80;;;;;;;19.22;53.51;100280.84;5114589;28;20039;-75
2021/09/12 06:55:38;;;;;;;6.93;4.50;;;;;;;18.83;54.33;100294.44;5114325;28;20101;-75
2021/09/12 06:58:06;;;;;;;8.48;5.00;;;;;;;18.69;55.10;100293.00;5114865;28;20562;-74
2021/09/12 07:00:35;;;;;;;7.57;4.35;;;;;;;18.60;55.33;100300.09;5114396;28;20043;-70
2021/09/12 07:03:03;;;;;;;10.05;4.60;;;;;;;18.75;55.30;100287.06;5113813;28;20088;-73
2021/09/12 07:05:32;;;;;;;8.18;4.55;;;;;;;18.77;54.79;100293.16;5113996;28;20524;-73
2021/09/12 07:08:01;;;;;;;9.55;4.68;;;;;;;18.93;54.47;100291.72;5113996;28;20050;-73
2021/09/12 07:10:29;;;;;;;8.18;4.95;;;;;;;18.69;54.73;100295.72;5114019;28;20066;-71
2021/09/12 07:13:02;;;;;;;7.88;4.80;;;;;;;18.74;54.91;100298.84;5113979;28;20043;-72
2021/09/12 07:15:30;;;;;;;7.32;4.70;;;;;;;18.79;55.22;100301.97;5114036;28;20040;-72
2021/09/12 07:17:59;;;;;;;7.43;4.68;;;;;;;18.95;55.29;100311.34;5113631;28;20043;-72
2021/09/12 07:20:28;;;;;;;11.23;4.88;;;;;;;18.94;55.50;100304.25;5114067;28;20478;-72
2021/09/12 07:22:57;;;;;;;8.82;5.03;;;;;;;19.02;55.51;100301.66;5113528;28;20048;-71
2021/09/12 07:25:27;;;;;;;7.45;4.80;;;;;;;19.11;55.00;100300.81;5113735;28;20047;-72
2021/09/12 07:27:55;;;;;;;10.20;4.75;;;;;;;19.11;55.06;100301.66;5113656;28;20478;-71
2021/09/12 07:30:28;;;;;;;9.45;4.60;;;;;;;19.26;54.00;100298.47;5113848;28;20160;-71
2021/09/12 07:32:57;;;;;;;9.40;3.97;;;;;;;19.41;53.25;100292.44;5112885;28;20047;-70
2021/09/12 07:35:25;;;;;;;8.15;4.40;;;;;;;19.49;53.71;100293.53;5113704;28;20052;-70
2021/09/12 07:37:53;;;;;;;8.05;4.70;;;;;;;19.50;53.32;100298.81;5113327;28;20044;-70
2021/09/12 07:40:21;;;;;;;7.28;4.68;;;;;;;19.56;53.13;100298.25;5113689;28;20039;-71
2021/09/12 07:42:53;;;;;;;8.35;4.38;;;;;;;19.63;53.05;100293.09;5113582;28;20047;-71
2021/09/12 07:45:21;;;;;;;8.82;4.57;;;;;;;19.83;52.16;100294.72;5113606;28;20039;-72
2021/09/12 07:47:53;;;;;;;9.27;4.40;;;;;;;19.98;51.71;100290.50;5113246;28;20046;-71
2021/09/12 07:50:21;;;;;;;9.38;4.75;;;;;;;19.86;52.27;100291.69;5113661;28;20051;-77
2021/09/12 07:52:49;;;;;;;8.98;5.22;;;;;;;19.85;52.41;100295.41;5113721;28;20043;-76
2021/09/12 07:55:22;;;;;;;10.55;4.53;;;;;;;20.12;51.19;100290.97;5113398;28;20127;-76
2021/09/12 07:57:50;;;;;;;9.05;4.00;;;;;;;20.06;50.94;100300.53;5113511;28;20050;-76
2021/09/12 08:00:19;;;;;;;8.68;4.68;;;;;;;19.97;51.83;100299.59;5113228;28;20048;-77
2021/09/12 08:02:47;;;;;;;8.27;4.65;;;;;;;20.11;50.98;100295.53;5113108;28;20130;-77
2021/09/12 08:05:18;;;;;;;14.13;4.20;;;;;;;20.15;51.10;100302.34;5113331;28;20402;-77
2021/09/12 08:07:46;;;;;;;9.93;4.35;;;;;;;20.28;51.36;100299.28;5113131;28;20085;-77
2021/09/12 08:10:15;;;;;;;6.72;4.00;;;;;;;20.31;51.44;100304.38;5113152;28;20789;-78
2021/09/12 08:12:44;;;;;;;10.18;4.25;;;;;;;20.75;49.16;100290.91;5113197;28;20089;-78
2021/09/12 08:15:13;;;;;;;8.20;4.43;;;;;;;20.96;48.25;100296.88;5112855;28;20063;-75
2021/09/12 08:17:41;;;;;;;10.27;4.68;;;;;;;21.03;48.45;100303.34;5112913;28;20092;-73
2021/09/12 08:20:10;;;;;;;8.95;4.43;;;;;;;20.95;49.00;100300.59;5112576;28;20067;-74
2021/09/12 08:22:40;;;;;;;8.38;4.22;;;;;;;20.95;48.45;100295.19;5112778;28;20126;-75
2021/09/12 08:25:10;;;;;;;11.50;4.43;;;;;;;20.99;47.79;100296.53;5112728;28;20040;-74
2021/09/12 08:27:38;;;;;;;9.38;3.90;;;;;;;21.34;47.24;100289.38;5113403;28;20382;-74
2021/09/12 08:30:09;;;;;;;10.48;4.38;;;;;;;21.43;46.19;100289.25;5112796;28;20127;-75
2021/09/12 08:32:40;;;;;;;9.32;4.35;;;;;;;21.46;45.79;100290.78;5113127;28;20134;-74
2021/09/12 08:35:09;;;;;;;7.38;4.32;;;;;;;21.55;45.21;100287.09;5112455;28;20490;-75
2021/09/12 08:37:42;;;;;;;6.25;3.90;;;;;;;21.54;45.79;100287.25;5113288;28;20123;-75
2021/09/12 08:40:11;;;;;;;7.28;3.40;;;;;;;21.81;43.71;100281.63;5112992;28;20040;-74
2021/09/12 08:42:44;;;;;;;10.02;4.20;;;;;;;21.91;43.91;100276.06;5094919;28;20134;-74
2021/09/12 08:45:12;;;;;;;7.40;3.97;;;;;;;21.83;44.45;100273.31;5113861;28;20100;-75
2021/09/12 08:47:42;;;;;;;10.10;4.07;;;;;;;21.84;44.90;100280.44;5116913;28;20043;-74
2021/09/12 08:50:11;;;;;;;6.50;3.90;;;;;;;21.96;43.42;100279.13;5116622;28;20092;-74
2021/09/12 08:52:39;;;;;;;9.40;4.40;;;;;;;22.03;42.91;100282.03;5116319;28;20078;-72
2021/09/12 08:55:09;;;;;;;6.57;3.97;;;;;;;22.00;43.47;100277.75;5116640;28;20093;-71
2021/09/12 08:57:48;;;;;;;5.70;3.78;;;;;;;21.99;43.94;100276.06;5116850;28;20500;-71
2021/09/12 09:00:19;;;;;;;7.93;3.78;;;;;;;22.21;43.48;100271.91;5116304;28;20040;-70
2021/09/12 09:02:47;;;;;;;10.25;4.05;;;;;;;22.31;43.08;100271.78;5116785;28;20093;-71
2021/09/12 09:05:29;;;;;;;7.30;4.18;;;;;;;22.47;42.08;100269.06;5116340;28;20047;-71
2021/09/12 09:08:05;;;;;;;9.73;3.78;;;;;;;22.34;42.62;100272.28;5116577;28;20043;-71
2021/09/12 09:10:48;;;;;;;6.07;3.78;;;;;;;22.47;42.77;100271.78;5116170;28;20047;-74
2021/09/12 09:13:31;;;;;;;8.63;3.60;;;;;;;22.68;41.02;100268.56;5116484;28;20470;-73
2021/09/12 09:16:01;;;;;;;8.60;4.30;;;;;;;22.68;41.06;100272.16;5116577;28;20043;-73
2021/09/12 09:18:35;;;;;;;7.32;3.95;;;;;;;22.66;41.30;100260.56;5114320;28;20040;-77
2021/09/12 09:21:23;;;;;;;8.65;4.38;;;;;;;22.79;40.36;100260.91;5108970;28;20039;-75
2021/09/12 09:24:17;;;;;;;6.07;3.90;;;;;;;22.97;40.08;100262.63;5116167;28;20408;-76
2021/09/12 09:26:48;;;;;;;;;;;;;;;22.83;40.91;100259.53;5115714;28;20101;-75
2021/09/12 09:29:23;;;;;;;7.47;3.92;;;;;;;22.72;41.17;100262.63;5115919;28;19926;-75
2021/09/12 09:32:05;;;;;;;6.15;3.70;;;;;;;22.87;40.67;100260.06;5115888;28;20051;-77
2021/09/12 09:34:35;;;;;;;6.55;3.80;;;;;;;23.11;39.54;100260.06;5116208;28;20105;-75
2021/09/12 09:37:11;;;;;;;10.73;3.80;;;;;;;23.30;39.16;100247.94;5115189;28;20082;-75
2021/09/12 09:39:41;;;;;;;8.48;3.60;;;;;;;23.35;39.34;100250.97;5115835;28;20104;-74
2021/09/12 09:42:32;;;;;;;7.00;4.00;;;;;;;23.33;39.17;100250.28;5097230;28;20046;-75
2021/09/12 09:45:02;;;;;;;7.78;4.05;;;;;;;23.50;39.00;100245.66;5115882;28;20391;-75
2021/09/12 09:47:31;;;;;;;7.47;3.85;;;;;;;23.50;38.53;100239.38;5115393;28;20067;-73
2021/09/12 09:50:08;;;;;;;7.30;3.78;;;;;;;23.36;38.92;100241.81;5115026;28;20043;-72
2021/09/12 09:52:38;;;;;;;6.82;3.42;;;;;;;23.59;38.47;100243.78;5115031;28;20109;-73
2021/09/12 09:55:07;;;;;;;7.05;3.80;;;;;;;23.50;38.24;100248.38;5115259;28;20036;-75
2021/09/12 09:57:40;;;;;;;6.07;3.70;;;;;;;23.76;37.31;100242.69;5114683;28;20575;-74
2021/09/12 10:00:09;;;;;;;6.47;3.55;;;;;;;23.86;36.09;100237.03;5115194;28;20494;-75
2021/09/12 10:02:38;;;;;;;7.43;3.38;;;;;;;23.85;35.24;100236.19;5115209;28;20569;-73
2021/09/12 10:05:09;;;;;;;7.28;3.20;;;;;;;23.84;35.75;100230.91;5115258;28;20066;-72
2021/09/12 10:07:40;;;;;;;7.75;3.63;;;;;;;24.14;35.92;100231.94;5115028;28;20040;-73
2021/09/12 10:10:11;;;;;;;6.68;3.53;;;;;;;24.26;35.05;100233.19;5114648;28;20040;-72
2021/09/12 10:12:46;;;;;;;6.38;3.45;;;;;;;24.23;34.49;100223.50;5115205;28;20047;-69
2021/09/12 10:15:19;;;;;;;9.02;3.80;;;;;;;24.09;35.11;100226.16;5114665;28;20092;-69
2021/09/12 10:17:48;;;;;;;6.25;3.78;;;;;;;24.13;35.42;100225.63;5114327;28;20489;-74
2021/09/12 10:20:22;;;;;;;6.93;3.20;;;;;;;24.10;36.03;100223.25;5114121;28;20040;-71
2021/09/12 10:22:53;;;;;;;5.43;3.40;;;;;;;24.28;35.48;100223.81;5114727;27;20044;-81
2021/09/12 10:25:22;;;;;;;7.65;3.53;;;;;;;24.31;34.36;100224.47;5114384;28;20048;-80
2021/09/12 10:28:00;;;;;;;7.45;3.65;;;;;;;24.38;34.54;100222.75;5114273;28;20043;-77
2021/09/12 10:30:33;;;;;;;6.03;3.58;;;;;;;24.22;35.26;100216.38;5114699;28;20397;-69
2021/09/12 10:33:22;;;;;;;7.20;3.75;;;;;;;24.47;35.14;100213.47;5114967;28;20047;-78
2021/09/12 10:35:56;;;;;;;8.63;3.80;;;;;;;24.36;35.58;100212.03;5114205;28;20074;-74
2021/09/12 10:38:27;;;;;;;7.70;3.47;;;;;;;24.27;35.10;100216.66;5113239;28;20071;-73
2021/09/12 10:41:14;;;;;;;5.57;3.40;;;;;;;24.60;34.65;100212.84;5114566;28;20043;-72
2021/09/12 10:43:48;;;;;;;7.10;3.53;;;;;;;24.54;34.92;100209.84;5114700;28;20560;-71
2021/09/12 10:46:32;;;;;;;5.28;3.40;;;;;;;24.69;34.23;100207.13;5114054;28;20052;-72
2021/09/12 10:49:10;;;;;;;7.13;3.50;;;;;;;24.68;33.91;100204.59;5114030;28;20036;-72
2021/09/12 10:51:40;;;;;;;8.10;3.30;;;;;;;24.86;32.81;100196.06;5114005;28;20038;-74
2021/09/12 10:54:12;;;;;;;6.38;3.10;;;;;;;25.03;32.17;100203.94;5111763;28;20059;-71
2021/09/12 10:56:47;;;;;;;5.53;3.10;;;;;;;24.94;32.51;100199.56;5113998;28;20123;-72
2021/09/12 10:59:17;;;;;;;6.85;3.50;;;;;;;24.75;32.88;100200.09;5113854;28;20508;-76
2021/09/12 11:01:49;;;;;;;6.38;3.65;;;;;;;24.91;33.63;100191.75;5113601;28;20047;-72
2021/09/12 11:04:26;;;;;;;9.18;3.50;;;;;;;25.01;32.85;100194.22;5113429;28;20119;-71
2021/09/12 11:07:04;;;;;;;6.03;3.30;;;;;;;25.01;32.45;100184.16;5114448;27;20044;-71
2021/09/12 11:09:34;;;;;;;7.95;3.28;;;;;;;25.19;32.39;100186.53;5129838;27;20039;-67
2021/09/12 11:12:06;;;;;;;6.63;3.40;;;;;;;25.20;32.75;100190.97;5120877;27;20053;-69
2021/09/12 11:14:36;;;;;;;6.28;3.38;;;;;;;25.45;32.53;100188.75;5122339;27;20047;-68
2021/09/12 11:17:08;;;;;;;8.82;3.40;;;;;;;25.24;33.09;100177.78;5129250;27;20046;-70
2021/09/12 11:19:37;;;;;;;9.17;3.40;;;;;;;25.23;32.81;100187.00;5116493;27;20115;-69
2021/09/12 11:22:07;;;;;;;5.80;3.30;;;;;;;25.37;32.23;100177.94;5126272;27;20093;-69
2021/09/12 11:24:37;;;;;;;7.05;3.80;;;;;;;25.44;33.04;100178.88;5125059;27;20057;-70
2021/09/12 11:27:07;;;;;;;7.90;3.63;;;;;;;25.57;31.79;100165.38;5099044;28;20059;-72
2021/09/12 11:29:39;;;;;;;7.13;3.33;;;;;;;25.24;32.48;100156.78;5130070;27;20505;-71
2021/09/12 11:32:13;;;;;;;9.13;3.40;;;;;;;25.15;32.82;100157.06;5121235;27;20058;-72